createdAt,value
2019-05-22T00:01:51.371Z,5.47
2019-05-22T00:05:32.068Z,5.83
2019-05-22T00:08:58.670Z,6.40
2019-05-22T00:12:25.295Z,6.37
2019-05-22T00:15:52.092Z,7.00
2019-05-22T00:19:20.032Z,6.50
2019-05-22T00:22:47.737Z,5.40
2019-05-22T00:26:15.115Z,6.53
2019-05-22T00:29:44.363Z,7.00
2019-05-22T00:33:11.848Z,6.83
2019-05-22T00:36:38.440Z,6.20
2019-05-22T00:40:08.401Z,6.27
2019-05-22T00:43:42.108Z,7.30
2019-05-22T00:47:09.779Z,7.17
2019-05-22T00:50:53.795Z,7.03
2019-05-22T00:54:23.935Z,6.60
2019-05-22T00:57:57.711Z,6.67
2019-05-22T01:01:38.877Z,7.63
2019-05-22T01:05:05.883Z,7.07
2019-05-22T01:08:33.677Z,7.63
2019-05-22T01:12:02.119Z,7.23
2019-05-22T01:15:29.257Z,7.37
2019-05-22T01:18:56.035Z,7.23
2019-05-22T01:22:24.091Z,8.47
2019-05-22T01:25:51.898Z,7.73
2019-05-22T01:29:19.381Z,7.73
2019-05-22T01:32:51.442Z,7.47
2019-05-22T01:36:20.676Z,8.20
2019-05-22T01:39:58.071Z,7.63
2019-05-22T01:43:26.170Z,7.57
2019-05-22T01:46:55.878Z,8.00
2019-05-22T01:50:41.648Z,8.40
2019-05-22T01:54:08.947Z,8.63
2019-05-22T01:57:35.072Z,8.43
2019-05-22T02:01:03.178Z,8.37
2019-05-22T02:04:29.312Z,8.40
2019-05-22T02:07:56.066Z,8.50
2019-05-22T02:11:24.532Z,9.33
2019-05-22T02:14:53.714Z,9.40
2019-05-22T02:18:23.117Z,9.83
2019-05-22T02:21:49.481Z,9.93
2019-05-22T02:25:16.576Z,10.27
2019-05-22T02:28:43.359Z,9.97
2019-05-22T02:32:11.428Z,10.57
2019-05-22T02:35:38.232Z,11.50
2019-05-22T02:39:14.605Z,11.30
2019-05-22T02:42:41.037Z,11.10
2019-05-22T02:46:08.538Z,11.53
2019-05-22T02:49:36.093Z,11.70
2019-05-22T02:53:03.722Z,11.47
2019-05-22T02:56:31.169Z,12.57
2019-05-22T02:59:58.666Z,13.90
2019-05-22T03:03:24.862Z,14.27
2019-05-22T03:06:52.835Z,13.50
2019-05-22T03:10:20.644Z,12.93
2019-05-22T03:14:01.163Z,12.53
2019-05-22T03:17:31.918Z,13.07
2019-05-22T03:20:58.281Z,12.47
2019-05-22T03:24:24.521Z,12.40
2019-05-22T03:27:51.923Z,13.23
2019-05-22T03:31:18.608Z,12.97
2019-05-22T03:34:44.156Z,12.73
2019-05-22T03:38:10.720Z,13.07
2019-05-22T03:41:38.007Z,12.67
2019-05-22T03:45:10.311Z,13.07
2019-05-22T03:48:38.019Z,15.10
2019-05-22T03:52:03.691Z,14.50
2019-05-22T03:55:29.651Z,14.83
2019-05-22T03:58:55.996Z,15.87
2019-05-22T04:02:21.919Z,15.20
2019-05-22T04:05:48.838Z,15.87
2019-05-22T04:09:24.074Z,16.33
2019-05-22T04:12:50.167Z,14.27
2019-05-22T04:16:21.336Z,14.07
2019-05-22T04:19:51.111Z,15.80
2019-05-22T04:23:16.747Z,16.50
2019-05-22T04:26:43.425Z,15.80
2019-05-22T04:30:12.996Z,16.83
2019-05-22T04:33:38.705Z,17.00
2019-05-22T04:37:05.411Z,17.23
2019-05-22T04:40:43.207Z,17.10
2019-05-22T04:44:08.925Z,16.70
2019-05-22T04:47:36.921Z,15.90
2019-05-22T04:51:22.601Z,16.23
2019-05-22T04:54:52.335Z,16.30
2019-05-22T04:58:18.537Z,15.87
2019-05-22T05:01:44.135Z,18.13
2019-05-22T05:05:12.540Z,19.13
2019-05-22T05:08:38.505Z,17.13
2019-05-22T05:12:06.075Z,18.47
2019-05-22T05:15:31.746Z,16.97
2019-05-22T05:18:57.404Z,17.57
2019-05-22T05:22:42.816Z,18.10
2019-05-22T05:26:08.695Z,17.50
2019-05-22T05:29:35.131Z,15.57
2019-05-22T05:33:01.254Z,18.17
2019-05-22T05:36:28.354Z,18.07
2019-05-22T05:40:09.243Z,18.33
2019-05-22T05:43:35.534Z,18.20
2019-05-22T05:47:01.882Z,17.97
2019-05-22T05:50:38.857Z,18.47
2019-05-22T05:54:20.703Z,18.17
2019-05-22T05:57:59.433Z,18.23
2019-05-22T06:01:28.395Z,18.17
2019-05-22T06:04:54.002Z,19.23
2019-05-22T06:08:19.841Z,17.17
2019-05-22T06:11:49.494Z,19.77
2019-05-22T06:15:15.930Z,16.93
2019-05-22T06:18:43.436Z,19.17
2019-05-22T06:22:11.492Z,17.20
2019-05-22T06:25:37.255Z,16.70
2019-05-22T06:29:03.849Z,16.93
2019-05-22T06:33:13.607Z,17.03
2019-05-22T06:36:41.165Z,17.27
2019-05-22T06:40:09.620Z,17.30
2019-05-22T06:43:45.730Z,17.37
2019-05-22T06:47:14.116Z,17.70
2019-05-22T06:50:39.742Z,18.20
2019-05-22T06:54:05.708Z,16.93
2019-05-22T06:57:32.171Z,17.60
2019-05-22T07:00:58.255Z,15.23
2019-05-22T07:04:24.013Z,16.77
2019-05-22T07:07:49.882Z,16.77
2019-05-22T07:11:15.748Z,16.67
2019-05-22T07:15:11.248Z,15.47
2019-05-22T07:18:37.554Z,16.13
2019-05-22T07:22:04.867Z,15.40
2019-05-22T07:25:33.104Z,15.77
2019-05-22T07:29:01.698Z,16.37
2019-05-22T07:32:30.842Z,15.13
2019-05-22T07:36:09.340Z,15.80
2019-05-22T07:39:25.264Z,15.00
2019-05-22T07:42:52.899Z,15.73
2019-05-22T07:46:19.048Z,14.67
2019-05-22T07:49:45.115Z,14.73
2019-05-22T07:53:11.646Z,15.23
2019-05-22T07:56:38.374Z,15.07
2019-05-22T08:00:05.278Z,16.03
2019-05-22T08:03:32.578Z,14.87
2019-05-22T08:06:58.735Z,15.53
2019-05-22T08:10:25.612Z,15.67
2019-05-22T08:13:53.426Z,14.90
2019-05-22T08:17:20.542Z,14.87
2019-05-22T08:20:47.031Z,15.70
2019-05-22T08:24:13.069Z,13.50
2019-05-22T08:27:40.498Z,14.77
2019-05-22T08:31:09.186Z,14.10
2019-05-22T08:34:35.581Z,13.33
2019-05-22T08:38:04.613Z,13.63
2019-05-22T08:41:35.190Z,15.57
2019-05-22T08:45:01.023Z,13.83
2019-05-22T08:48:28.341Z,13.77
2019-05-22T08:51:54.747Z,13.60
2019-05-22T08:55:20.787Z,12.30
2019-05-22T08:58:48.569Z,12.37
2019-05-22T09:02:15.084Z,13.07
2019-05-22T09:05:40.756Z,12.60
2019-05-22T09:09:07.689Z,12.27
2019-05-22T09:12:33.694Z,11.37
2019-05-22T09:16:02.026Z,9.13
2019-05-22T09:19:28.492Z,8.07
2019-05-22T09:22:54.887Z,8.90
2019-05-22T09:26:20.563Z,9.80
2019-05-22T09:29:46.637Z,8.60
2019-05-22T09:33:13.522Z,7.47
2019-05-22T09:36:40.077Z,8.37
2019-05-22T09:40:07.956Z,8.30
2019-05-22T09:43:33.577Z,6.83
2019-05-22T09:46:59.247Z,5.97
2019-05-22T09:50:26.181Z,5.77
2019-05-22T09:53:52.159Z,5.40
2019-05-22T09:57:17.781Z,5.43
2019-05-22T10:00:43.929Z,5.53
2019-05-22T10:04:09.867Z,4.50
2019-05-22T10:07:36.873Z,4.67
2019-05-22T10:11:02.750Z,5.60
2019-05-22T10:14:29.457Z,4.33
2019-05-22T10:17:55.520Z,4.50
2019-05-22T10:21:22.330Z,4.50
2019-05-22T10:24:50.355Z,4.73
2019-05-22T10:28:16.307Z,4.07
2019-05-22T10:31:42.433Z,5.10
2019-05-22T10:35:09.464Z,5.13
2019-05-22T10:38:35.413Z,4.20
2019-05-22T10:42:02.472Z,4.97
2019-05-22T10:45:29.147Z,4.67
2019-05-22T10:48:57.041Z,4.87
2019-05-22T10:52:23.151Z,5.13
2019-05-22T10:55:49.393Z,5.90
2019-05-22T10:59:15.161Z,5.70
2019-05-22T11:02:41.969Z,5.53
2019-05-22T11:06:08.594Z,4.40
2019-05-22T11:09:34.852Z,5.47
2019-05-22T11:13:01.284Z,5.43
2019-05-22T11:16:27.542Z,4.10
2019-05-22T11:19:53.874Z,4.53
2019-05-22T11:23:19.562Z,4.30
2019-05-22T11:26:46.967Z,4.97
2019-05-22T11:30:15.552Z,4.75
2019-05-22T11:33:41.754Z,4.72
2019-05-22T11:37:08.591Z,3.92
2019-05-22T11:40:35.019Z,4.25
2019-05-22T11:44:00.978Z,3.55
2019-05-22T11:47:26.639Z,3.22
2019-05-22T11:50:53.941Z,3.55
2019-05-22T11:54:19.530Z,3.30
2019-05-22T11:57:47.215Z,3.92
2019-05-22T12:01:13.686Z,3.25
2019-05-22T12:04:48.033Z,4.30
2019-05-22T12:08:09.377Z,3.58
2019-05-22T12:11:35.033Z,3.50
2019-05-22T12:15:01.208Z,2.77
2019-05-22T12:18:27.708Z,3.40
2019-05-22T12:21:54.670Z,2.85
2019-05-22T12:25:21.100Z,2.80
2019-05-22T12:28:47.156Z,2.60
2019-05-22T12:32:14.562Z,2.40
2019-05-22T12:35:42.280Z,2.10
2019-05-22T12:39:10.447Z,2.50
2019-05-22T12:42:36.507Z,1.75
2019-05-22T12:46:03.332Z,1.90
2019-05-22T12:49:29.329Z,2.33
2019-05-22T12:52:55.683Z,2.20
2019-05-22T12:56:21.549Z,2.00
2019-05-22T12:59:49.425Z,1.80
2019-05-22T13:03:16.811Z,1.60
2019-05-22T13:06:43.607Z,1.52
2019-05-22T13:10:10.216Z,1.70
2019-05-22T13:13:37.393Z,1.70
2019-05-22T13:17:05.552Z,1.75
2019-05-22T13:20:42.652Z,1.70
2019-05-22T13:24:08.906Z,1.50
2019-05-22T13:27:36.460Z,1.77
2019-05-22T13:31:02.940Z,1.70
2019-05-22T13:34:32.037Z,1.67
2019-05-22T13:37:59.326Z,1.72
2019-05-22T13:41:25.213Z,1.77
2019-05-22T13:44:51.045Z,1.80
2019-05-22T13:48:17.999Z,2.00
2019-05-22T13:51:43.923Z,1.60
2019-05-22T13:55:11.899Z,1.90
2019-05-22T13:58:38.430Z,1.95
2019-05-22T14:02:04.711Z,1.25
2019-05-22T14:05:30.988Z,1.05
2019-05-22T14:08:57.167Z,1.70
2019-05-22T14:12:23.100Z,6.10
2019-05-22T14:15:56.090Z,1.40
2019-05-22T14:19:16.477Z,1.90
2019-05-22T14:22:43.386Z,2.25
2019-05-22T14:26:09.685Z,1.67
2019-05-22T14:29:35.604Z,2.00
2019-05-22T14:33:04.801Z,1.87
2019-05-22T14:36:29.691Z,2.02
2019-05-22T14:39:55.624Z,2.40
2019-05-22T14:43:21.594Z,1.98
2019-05-22T14:46:47.356Z,2.02
2019-05-22T14:50:13.665Z,1.75
2019-05-22T14:53:41.900Z,1.95
2019-05-22T14:57:09.197Z,2.15
2019-05-22T15:00:38.069Z,1.67
2019-05-22T15:04:05.131Z,1.72
2019-05-22T15:07:30.736Z,2.00
2019-05-22T15:10:58.258Z,1.75
2019-05-22T15:14:25.113Z,1.72
2019-05-22T15:17:51.406Z,1.65
2019-05-22T15:21:18.294Z,1.85
2019-05-22T15:24:43.967Z,1.82
2019-05-22T15:28:10.598Z,1.75
2019-05-22T15:31:37.130Z,2.08
2019-05-22T15:35:04.301Z,1.90
2019-05-22T15:38:31.178Z,1.75
2019-05-22T15:41:57.559Z,1.40
2019-05-22T15:45:28.022Z,1.65
2019-05-22T15:48:56.091Z,1.50
2019-05-22T15:52:26.341Z,1.75
2019-05-22T15:55:54.518Z,2.20
2019-05-22T15:59:22.439Z,1.70
2019-05-22T16:02:49.745Z,2.72
2019-05-22T16:06:18.439Z,1.80
2019-05-22T16:09:45.777Z,1.82
2019-05-22T16:13:15.350Z,3.30
2019-05-22T16:16:41.886Z,2.10
2019-05-22T16:20:08.859Z,1.60
2019-05-22T16:23:37.436Z,1.60
2019-05-22T16:27:03.800Z,1.45
2019-05-22T16:30:29.649Z,1.80
2019-05-22T16:33:56.237Z,1.67
2019-05-22T16:37:22.851Z,2.05
2019-05-22T16:40:48.763Z,2.17
2019-05-22T16:44:15.390Z,2.25
2019-05-22T16:47:42.781Z,2.90
2019-05-22T16:51:14.988Z,1.85
2019-05-22T16:54:42.894Z,1.90
2019-05-22T16:58:09.296Z,2.22
2019-05-22T17:01:56.772Z,2.10
2019-05-22T17:05:05.953Z,1.70
2019-05-22T17:08:33.065Z,2.37
2019-05-22T17:11:58.910Z,1.80
2019-05-22T17:15:24.742Z,2.25
2019-05-22T17:18:50.349Z,1.80
2019-05-22T17:22:17.567Z,1.92
2019-05-22T17:25:45.245Z,2.00
2019-05-22T17:29:12.458Z,1.90
2019-05-22T17:32:38.468Z,1.98
2019-05-22T17:36:05.833Z,1.55
2019-05-22T17:39:34.614Z,1.57
2019-05-22T17:43:02.308Z,1.37
2019-05-22T17:46:30.308Z,1.60
2019-05-22T17:49:56.894Z,1.90
2019-05-22T17:53:23.212Z,1.60
2019-05-22T17:56:49.376Z,1.77
2019-05-22T18:00:20.153Z,1.57
2019-05-22T18:03:46.035Z,1.57
2019-05-22T18:07:12.597Z,1.62
2019-05-22T18:10:41.052Z,1.52
2019-05-22T18:14:08.369Z,1.70
2019-05-22T18:17:34.635Z,1.72
2019-05-22T18:21:00.740Z,1.50
2019-05-22T18:24:26.634Z,1.57
2019-05-22T18:27:52.445Z,1.70
2019-05-22T18:31:18.248Z,2.00
2019-05-22T18:34:43.838Z,1.55
2019-05-22T18:38:09.548Z,1.92
2019-05-22T18:41:35.151Z,1.72
2019-05-22T18:45:00.774Z,1.90
2019-05-22T18:48:27.072Z,1.87
2019-05-22T18:51:52.913Z,2.00
2019-05-22T18:55:19.035Z,2.12
2019-05-22T18:58:45.106Z,2.05
2019-05-22T19:02:10.874Z,1.57
2019-05-22T19:05:37.798Z,1.50
2019-05-22T19:09:04.835Z,1.90
2019-05-22T19:12:31.060Z,2.25
2019-05-22T19:15:57.800Z,2.08
2019-05-22T19:19:24.833Z,1.70
2019-05-22T19:23:00.360Z,2.10
2019-05-22T19:26:18.990Z,2.20
2019-05-22T19:29:44.591Z,2.00
2019-05-22T19:33:14.937Z,1.95
2019-05-22T19:36:39.909Z,2.00
2019-05-22T19:40:08.312Z,2.05
2019-05-22T19:43:34.791Z,2.07
2019-05-22T19:47:00.681Z,2.00
2019-05-22T19:50:29.099Z,1.83
2019-05-22T19:53:54.890Z,2.27
2019-05-22T19:57:20.916Z,2.13
2019-05-22T20:00:47.156Z,2.30
2019-05-22T20:04:15.305Z,2.40
2019-05-22T20:07:41.510Z,2.10
2019-05-22T20:11:07.547Z,2.23
2019-05-22T20:14:33.538Z,2.70
2019-05-22T20:18:00.397Z,2.90
2019-05-22T20:21:26.561Z,2.47
2019-05-22T20:24:52.220Z,2.50
2019-05-22T20:28:18.733Z,2.17
2019-05-22T20:31:44.323Z,2.50
2019-05-22T20:35:12.038Z,2.37
2019-05-22T20:38:38.515Z,3.23
2019-05-22T20:42:07.150Z,3.10
2019-05-22T20:45:33.484Z,3.00
2019-05-22T20:49:00.833Z,2.57
2019-05-22T20:52:30.256Z,2.50
2019-05-22T20:55:57.829Z,3.20
2019-05-22T20:59:24.464Z,2.93
2019-05-22T21:02:53.591Z,2.80
2019-05-22T21:06:22.325Z,2.70
2019-05-22T21:09:47.998Z,3.20
2019-05-22T21:13:18.721Z,3.60
2019-05-22T21:16:45.065Z,3.10
2019-05-22T21:20:14.587Z,3.30
2019-05-22T21:23:41.950Z,3.20
2019-05-22T21:27:09.652Z,2.83
2019-05-22T21:30:36.218Z,2.60
2019-05-22T21:34:02.313Z,3.47
2019-05-22T21:37:27.914Z,3.57
2019-05-22T21:40:56.664Z,3.60
2019-05-22T21:44:23.798Z,3.60
2019-05-22T21:47:50.489Z,3.57
2019-05-22T21:51:16.705Z,3.23
2019-05-22T21:54:43.117Z,3.57
2019-05-22T21:58:09.732Z,3.53
2019-05-22T22:01:37.398Z,2.90
2019-05-22T22:05:04.132Z,3.30
2019-05-22T22:08:30.843Z,3.60
2019-05-22T22:11:57.167Z,2.87
2019-05-22T22:15:24.387Z,3.53
2019-05-22T22:18:50.265Z,2.97
2019-05-22T22:22:22.849Z,3.13
2019-05-22T22:25:49.212Z,3.10
2019-05-22T22:29:15.134Z,3.27
2019-05-22T22:32:43.163Z,3.20
2019-05-22T22:36:09.854Z,3.10
2019-05-22T22:39:36.599Z,3.70
2019-05-22T22:43:06.283Z,3.00
2019-05-22T22:46:46.977Z,3.27
2019-05-22T22:50:13.946Z,3.07
2019-05-22T22:53:39.890Z,3.43
2019-05-22T22:57:07.123Z,3.37
2019-05-22T23:00:35.455Z,3.23
2019-05-22T23:04:04.497Z,3.20
2019-05-22T23:07:33.119Z,3.23
2019-05-22T23:11:00.063Z,2.90
2019-05-22T23:14:27.685Z,3.20
2019-05-22T23:17:54.189Z,3.10
2019-05-22T23:21:18.590Z,3.40
2019-05-22T23:24:46.525Z,3.17
2019-05-22T23:28:13.446Z,3.10
2019-05-22T23:31:40.346Z,4.00
2019-05-22T23:35:09.015Z,3.10
2019-05-22T23:38:34.839Z,2.90
2019-05-22T23:42:05.062Z,3.37
2019-05-22T23:45:31.001Z,2.90
2019-05-22T23:48:59.562Z,3.20
2019-05-22T23:52:26.627Z,3.30
2019-05-22T23:55:54.120Z,3.97
2019-05-22T23:59:20.341Z,3.40
